createdAt,value
2023-03-06T00:30:11.588Z,21.92
2023-03-06T00:33:11.637Z,21.88
2023-03-06T00:34:11.743Z,21.87
2023-03-06T00:35:11.786Z,21.84
2023-03-06T00:36:11.734Z,21.88
2023-03-06T00:43:01.382Z,22.59
2023-03-06T00:44:01.085Z,22.05
2023-03-06T00:45:01.197Z,21.96
2023-03-06T00:46:01.237Z,21.92
2023-03-06T00:47:01.169Z,21.89
2023-03-06T00:48:01.270Z,21.85
2023-03-06T00:49:01.271Z,21.87
2023-03-06T00:50:01.328Z,21.82
2023-03-06T00:51:01.399Z,21.81
2023-03-06T00:52:01.350Z,21.82
2023-03-06T00:53:01.388Z,21.79
2023-03-06T00:54:01.482Z,21.78
2023-03-06T00:55:01.404Z,21.77
2023-03-06T00:56:01.435Z,21.76
2023-03-06T00:57:01.478Z,21.77
2023-03-06T00:58:01.485Z,21.77
2023-03-06T00:59:01.463Z,21.75
2023-03-06T01:09:29.998Z,22.61
2023-03-06T01:11:29.668Z,21.95
2023-03-06T01:15:29.827Z,21.84
2023-03-06T01:30:30.066Z,21.72
2023-03-06T01:31:29.946Z,21.74
2023-03-06T01:32:29.991Z,21.74
2023-03-06T01:33:29.943Z,21.72
2023-03-06T01:34:29.971Z,21.74
2023-03-06T01:36:29.911Z,21.72
2023-03-06T01:37:29.876Z,21.73
2023-03-06T01:38:29.924Z,21.72
2023-03-06T01:39:29.981Z,21.72
2023-03-06T01:40:30.036Z,21.69
2023-03-06T01:41:29.916Z,21.72
2023-03-06T01:43:29.964Z,21.69
2023-03-06T01:44:29.994Z,21.68
2023-03-06T01:45:30.016Z,21.69
2023-03-06T01:46:29.918Z,21.71
2023-03-06T01:47:30.079Z,21.68
2023-03-06T01:48:29.919Z,21.69
2023-03-06T01:50:29.886Z,21.68
2023-03-06T01:52:29.894Z,21.69
2023-03-06T01:53:29.949Z,21.66
2023-03-06T01:55:30.029Z,21.65
2023-03-06T01:56:29.901Z,21.65
2023-03-06T01:57:29.992Z,21.63
2023-03-06T01:58:29.803Z,21.65
2023-03-06T01:59:29.852Z,21.64
2023-03-06T02:00:29.873Z,21.64
2023-03-06T02:01:29.917Z,21.66
2023-03-06T02:02:30.033Z,21.63
2023-03-06T02:03:29.887Z,21.64
2023-03-06T02:04:30.910Z,21.64
2023-03-06T02:05:29.909Z,21.63
2023-03-06T02:06:29.899Z,21.66
2023-03-06T02:07:29.849Z,21.65
2023-03-06T02:08:29.890Z,21.64
2023-03-06T02:09:29.937Z,21.64
2023-03-06T02:10:29.971Z,21.63
2023-03-06T02:11:29.983Z,21.64
2023-03-06T02:12:29.795Z,21.63
2023-03-06T02:13:29.946Z,21.61
2023-03-06T02:14:29.933Z,21.62
2023-03-06T02:15:29.820Z,21.62
2023-03-06T02:16:29.861Z,21.62
2023-03-06T02:17:29.893Z,21.63
2023-03-06T02:18:29.801Z,21.61
2023-03-06T02:19:29.893Z,21.63
2023-03-06T02:20:29.890Z,21.62
2023-03-06T02:21:29.867Z,21.61
2023-03-06T02:22:29.796Z,21.57
2023-03-06T02:23:29.828Z,21.59
2023-03-06T02:24:29.872Z,21.57
2023-03-06T02:25:29.966Z,21.56
2023-03-06T02:27:48.802Z,21.60
2023-03-06T02:28:49.010Z,21.46
2023-03-06T02:32:38.416Z,21.75
2023-03-06T02:33:38.050Z,21.48
2023-03-06T02:34:38.158Z,21.41
2023-03-06T02:35:38.110Z,21.35
2023-03-06T02:36:38.132Z,21.25
2023-03-06T02:37:38.150Z,20.91
2023-03-06T02:38:38.168Z,20.79
2023-03-06T02:39:38.164Z,20.96
2023-03-06T02:40:38.280Z,20.70
2023-03-06T02:41:38.211Z,20.78
2023-03-06T02:42:38.184Z,20.67
2023-03-06T02:43:38.212Z,20.82
2023-03-06T02:44:38.186Z,20.74
2023-03-06T02:45:38.201Z,20.76
2023-03-06T02:46:38.182Z,20.59
2023-03-06T02:47:38.207Z,20.55
2023-03-06T02:48:38.184Z,20.60
2023-03-06T02:49:38.235Z,20.63
2023-03-06T02:50:38.237Z,20.53
2023-03-06T02:51:38.333Z,20.55
2023-03-06T02:52:38.309Z,20.51
2023-03-06T02:53:38.323Z,20.57
2023-03-06T02:54:38.380Z,20.46
2023-03-06T04:55:18.071Z,22.00
2023-03-06T04:56:18.141Z,21.46
2023-03-06T04:57:18.229Z,21.29
2023-03-06T04:58:17.931Z,21.28
2023-03-06T04:59:18.002Z,21.24
2023-03-06T05:00:18.052Z,21.22
2023-03-06T05:01:18.101Z,21.27
2023-03-06T05:02:18.028Z,21.26
2023-03-06T05:37:02.476Z,21.27
2023-03-06T05:38:02.566Z,21.21
2023-03-06T05:39:02.502Z,21.18
2023-03-06T05:40:02.652Z,21.19
2023-03-06T05:41:02.445Z,21.16
2023-03-06T05:42:02.399Z,21.17
2023-03-06T05:43:02.374Z,21.19
2023-03-06T05:44:02.365Z,21.05
2023-03-06T05:45:02.422Z,21.15
2023-03-06T05:46:02.447Z,21.16
2023-03-06T05:47:02.427Z,21.12
2023-03-06T05:48:02.368Z,21.18
2023-03-06T05:49:02.366Z,21.20
2023-03-06T07:35:13.745Z,26.15
2023-03-06T07:36:02.204Z,25.73
2023-03-06T07:44:01.572Z,25.67
2023-03-06T07:47:01.548Z,25.29
2023-03-06T08:05:53.891Z,26.06
2023-03-06T08:06:53.540Z,26.06
2023-03-06T08:14:28.634Z,26.60
2023-03-06T08:15:22.765Z,25.90
2023-03-06T08:16:21.329Z,25.71
2023-03-06T08:27:25.894Z,25.83
2023-03-06T08:32:03.449Z,24.62
2023-03-06T08:48:58.066Z,24.98
2023-03-06T08:54:24.136Z,24.47
2023-03-06T08:55:24.784Z,24.02
2023-03-06T08:56:23.734Z,24.04
2023-03-06T08:57:25.097Z,23.98
2023-03-06T08:58:23.832Z,24.04
2023-03-06T08:59:23.772Z,23.95
2023-03-06T09:00:23.864Z,23.99
2023-03-06T09:01:23.359Z,23.84
2023-03-06T09:02:23.952Z,23.58
2023-03-06T09:15:01.462Z,24.00
2023-03-06T09:16:00.876Z,23.75
2023-03-06T09:17:01.759Z,23.92
2023-03-06T09:18:01.659Z,23.70
2023-03-06T09:29:23.492Z,24.29
2023-03-06T09:30:23.222Z,23.55
2023-03-06T09:31:22.772Z,23.46
2023-03-06T09:32:22.743Z,22.71
2023-03-06T09:33:22.766Z,24.01
2023-03-06T09:34:22.951Z,24.52
2023-03-06T09:36:59.138Z,23.86
2023-03-06T10:52:10.078Z,24.26
2023-03-06T11:05:29.318Z,24.65
2023-03-06T12:23:44.956Z,23.34
2023-03-06T12:33:22.980Z,21.42
2023-03-06T12:35:41.790Z,22.48
2023-03-06T13:51:32.103Z,22.16
2023-03-06T13:52:32.693Z,22.08
2023-03-06T14:24:07.144Z,24.93
2023-03-06T14:25:06.921Z,24.30
2023-03-06T14:26:07.143Z,24.16
2023-03-06T14:37:44.617Z,24.00
2023-03-06T14:38:44.873Z,23.99
2023-03-06T14:39:45.150Z,23.94
2023-03-06T14:42:04.152Z,24.09
2023-03-06T14:48:00.699Z,24.18
2023-03-06T14:53:39.713Z,24.35
2023-03-06T14:55:58.136Z,24.41
2023-03-06T14:56:58.135Z,24.36
2023-03-06T14:57:57.907Z,24.39
2023-03-06T14:58:58.153Z,24.39
2023-03-06T14:59:58.022Z,24.40
2023-03-06T15:00:58.355Z,24.37
2023-03-06T15:01:58.020Z,24.38
2023-03-06T15:09:59.486Z,24.84
2023-03-06T15:12:42.572Z,25.25
2023-03-06T15:16:59.701Z,26.59
2023-03-06T15:17:57.200Z,26.03
2023-03-06T15:18:56.450Z,25.33
2023-03-06T15:19:56.593Z,24.85
2023-03-06T15:39:20.814Z,24.72
2023-03-06T15:40:20.899Z,24.86
2023-03-06T15:41:20.937Z,24.64
2023-03-06T15:42:20.934Z,24.57
2023-03-06T15:43:21.056Z,24.53
2023-03-06T15:45:21.005Z,24.54
2023-03-06T15:46:21.040Z,26.01
2023-03-06T18:06:30.374Z,24.06
2023-03-06T18:12:49.753Z,24.25
2023-03-06T18:18:55.770Z,23.91
2023-03-06T18:47:53.527Z,24.44
2023-03-06T18:54:53.320Z,24.35
2023-03-06T18:57:12.347Z,23.81
2023-03-06T18:58:12.205Z,23.61
2023-03-06T19:00:32.061Z,23.75
2023-03-06T19:02:49.577Z,23.96
2023-03-06T19:37:37.681Z,24.01
